createdAt,value
2018-04-07T00:01:07.623Z,2.97
2018-04-07T00:03:36.042Z,2.57
2018-04-07T00:06:04.214Z,2.90
2018-04-07T00:08:32.631Z,3.10
2018-04-07T00:11:00.333Z,2.87
2018-04-07T00:13:28.457Z,2.87
2018-04-07T00:15:56.093Z,3.20
2018-04-07T00:18:24.149Z,2.93
2018-04-07T00:20:52.565Z,3.53
2018-04-07T00:23:20.224Z,3.20
2018-04-07T00:25:48.655Z,3.30
2018-04-07T00:28:17.860Z,3.50
2018-04-07T00:30:46.356Z,2.87
2018-04-07T00:33:14.784Z,2.80
2018-04-07T00:35:43.937Z,3.40
2018-04-07T00:38:12.354Z,3.00
2018-04-07T00:40:39.986Z,3.13
2018-04-07T00:43:08.503Z,3.50
2018-04-07T00:45:36.556Z,3.83
2018-04-07T00:48:04.621Z,2.50
2018-04-07T00:50:33.089Z,3.13
2018-04-07T00:53:01.911Z,3.00
2018-04-07T00:55:30.744Z,3.10
2018-04-07T00:57:58.812Z,3.10
2018-04-07T01:00:27.280Z,3.63
2018-04-07T01:02:54.980Z,3.10
2018-04-07T01:05:23.021Z,3.50
2018-04-07T01:07:51.438Z,2.83
2018-04-07T01:10:19.917Z,2.90
2018-04-07T01:12:48.393Z,3.17
2018-04-07T01:15:16.813Z,3.37
2018-04-07T01:17:45.209Z,3.33
2018-04-07T01:20:12.923Z,3.23
2018-04-07T01:22:41.010Z,3.00
2018-04-07T01:25:08.616Z,3.40
2018-04-07T01:27:37.045Z,3.77
2018-04-07T01:30:05.560Z,3.40
2018-04-07T01:32:34.361Z,3.87
2018-04-07T01:35:02.780Z,4.10
2018-04-07T01:37:31.226Z,3.37
2018-04-07T01:39:58.912Z,3.10
2018-04-07T01:42:27.362Z,3.57
2018-04-07T01:44:55.401Z,3.97
2018-04-07T01:47:23.502Z,3.40
2018-04-07T01:49:51.134Z,3.43
2018-04-07T01:52:19.168Z,3.10
2018-04-07T01:54:47.572Z,3.40
2018-04-07T01:57:15.643Z,3.73
2018-04-07T01:59:43.666Z,4.00
2018-04-07T02:02:11.289Z,3.53
2018-04-07T02:04:40.308Z,3.70
2018-04-07T02:07:17.741Z,3.20
2018-04-07T02:09:45.777Z,3.70
2018-04-07T02:12:14.153Z,3.57
2018-04-07T02:14:42.605Z,3.57
2018-04-07T02:17:11.051Z,3.37
2018-04-07T02:19:39.116Z,4.53
2018-04-07T02:22:07.505Z,4.27
2018-04-07T02:24:35.894Z,3.60
2018-04-07T02:27:05.117Z,3.47
2018-04-07T02:29:32.736Z,3.80
2018-04-07T02:32:01.523Z,3.83
2018-04-07T02:34:29.181Z,3.80
2018-04-07T02:36:57.593Z,3.60
2018-04-07T02:39:26.026Z,4.00
2018-04-07T02:41:55.204Z,3.60
2018-04-07T02:44:23.612Z,3.70
2018-04-07T02:46:52.382Z,4.10
2018-04-07T02:49:20.416Z,4.03
2018-04-07T02:51:48.032Z,3.80
2018-04-07T02:54:16.102Z,4.00
2018-04-07T02:56:44.565Z,3.20
2018-04-07T02:59:12.201Z,3.70
2018-04-07T03:01:40.336Z,3.47
2018-04-07T03:04:08.710Z,4.33
2018-04-07T03:06:36.382Z,3.67
2018-04-07T03:09:04.535Z,3.53
2018-04-07T03:11:32.917Z,3.57
2018-04-07T03:14:00.928Z,3.60
2018-04-07T03:16:43.462Z,3.83
2018-04-07T03:19:11.098Z,3.70
2018-04-07T03:21:38.726Z,3.50
2018-04-07T03:24:06.799Z,3.67
2018-04-07T03:26:45.663Z,3.80
2018-04-07T03:29:13.658Z,3.53
2018-04-07T03:31:41.324Z,3.03
2018-04-07T03:34:09.778Z,4.17
2018-04-07T03:36:37.391Z,3.70
2018-04-07T03:39:06.235Z,3.50
2018-04-07T03:41:33.859Z,4.30
2018-04-07T03:44:02.279Z,4.30
2018-04-07T03:46:30.729Z,3.90
2018-04-07T03:48:58.397Z,4.17
2018-04-07T03:51:26.844Z,4.00
2018-04-07T03:53:54.471Z,3.50
2018-04-07T03:56:23.470Z,3.83
2018-04-07T03:58:51.960Z,3.83
2018-04-07T04:01:19.951Z,3.83
2018-04-07T04:03:47.713Z,3.60
2018-04-07T04:06:16.855Z,4.23
2018-04-07T04:08:44.540Z,3.73
2018-04-07T04:11:12.193Z,4.13
2018-04-07T04:13:40.939Z,4.03
2018-04-07T04:16:09.340Z,3.70
2018-04-07T04:18:36.998Z,3.53
2018-04-07T04:21:04.640Z,3.77
2018-04-07T04:23:33.096Z,3.90
2018-04-07T04:26:01.090Z,3.90
2018-04-07T04:28:29.476Z,4.00
2018-04-07T04:30:57.155Z,3.90
2018-04-07T04:33:24.820Z,3.80
2018-04-07T04:35:52.560Z,3.63
2018-04-07T04:38:20.986Z,3.83
2018-04-07T04:40:48.651Z,4.10
2018-04-07T04:43:16.741Z,3.50
2018-04-07T04:45:44.348Z,3.97
2018-04-07T04:48:11.959Z,4.07
2018-04-07T04:50:40.746Z,4.57
2018-04-07T04:53:08.743Z,4.20
2018-04-07T04:55:36.830Z,3.70
2018-04-07T04:58:04.854Z,3.87
2018-04-07T05:00:32.493Z,3.63
2018-04-07T05:03:00.136Z,4.20
2018-04-07T05:05:27.799Z,4.20
2018-04-07T05:07:55.830Z,3.37
2018-04-07T05:10:23.446Z,4.00
2018-04-07T05:12:51.490Z,4.03
2018-04-07T05:15:19.583Z,3.80
2018-04-07T05:17:48.024Z,4.60
2018-04-07T05:20:16.118Z,4.90
2018-04-07T05:22:44.511Z,4.20
2018-04-07T05:25:12.919Z,4.57
2018-04-07T05:27:40.560Z,4.53
2018-04-07T05:30:08.250Z,4.57
2018-04-07T05:32:36.328Z,3.80
2018-04-07T05:35:04.005Z,3.87
2018-04-07T05:37:31.608Z,4.17
2018-04-07T05:40:01.204Z,3.70
2018-04-07T05:42:31.061Z,4.70
2018-04-07T05:45:00.075Z,3.87
2018-04-07T05:47:27.742Z,4.33
2018-04-07T05:49:56.109Z,4.30
2018-04-07T05:52:23.768Z,3.53
2018-04-07T05:54:51.427Z,4.40
2018-04-07T05:57:34.247Z,4.03
2018-04-07T06:00:01.878Z,4.23
2018-04-07T06:02:29.527Z,4.40
2018-04-07T06:04:57.163Z,3.90
2018-04-07T06:07:25.568Z,4.00
2018-04-07T06:09:54.027Z,4.03
2018-04-07T06:12:22.121Z,3.97
2018-04-07T06:14:49.720Z,4.20
2018-04-07T06:17:17.358Z,4.13
2018-04-07T06:19:45.424Z,4.77
2018-04-07T06:22:13.038Z,4.20
2018-04-07T06:24:41.789Z,4.80
2018-04-07T06:27:09.392Z,4.23
2018-04-07T06:29:37.786Z,4.53
2018-04-07T06:32:05.475Z,4.50
2018-04-07T06:34:33.138Z,5.03
2018-04-07T06:37:19.815Z,4.77
2018-04-07T06:39:47.559Z,4.93
2018-04-07T06:42:16.058Z,4.57
2018-04-07T06:44:43.678Z,4.83
2018-04-07T06:47:12.658Z,4.60
2018-04-07T06:49:40.360Z,4.60
2018-04-07T06:52:08.183Z,4.97
2018-04-07T06:54:36.555Z,4.20
2018-04-07T06:57:04.196Z,4.73
2018-04-07T06:59:32.996Z,4.57
2018-04-07T07:02:01.824Z,4.90
2018-04-07T07:04:29.455Z,4.40
2018-04-07T07:06:57.152Z,4.83
2018-04-07T07:09:24.756Z,4.70
2018-04-07T07:11:53.531Z,5.20
2018-04-07T07:14:22.571Z,5.50
2018-04-07T07:16:50.247Z,4.50
2018-04-07T07:19:17.994Z,4.90
2018-04-07T07:21:45.680Z,4.43
2018-04-07T07:24:13.396Z,5.13
2018-04-07T07:26:41.076Z,4.40
2018-04-07T07:29:08.721Z,4.57
2018-04-07T07:31:37.126Z,4.40
2018-04-07T07:34:04.756Z,4.50
2018-04-07T07:36:32.778Z,4.20
2018-04-07T07:39:01.196Z,4.20
2018-04-07T07:41:29.556Z,4.57
2018-04-07T07:43:57.167Z,4.43
2018-04-07T07:46:25.614Z,4.63
2018-04-07T07:48:53.267Z,4.60
2018-04-07T07:51:21.680Z,4.00
2018-04-07T07:53:49.755Z,4.23
2018-04-07T07:56:17.424Z,4.47
2018-04-07T07:58:45.075Z,4.60
2018-04-07T08:01:14.238Z,4.67
2018-04-07T08:03:42.301Z,4.63
2018-04-07T08:06:09.925Z,4.73
2018-04-07T08:08:37.612Z,4.73
2018-04-07T08:11:05.312Z,5.20
2018-04-07T08:13:33.348Z,5.13
2018-04-07T08:16:01.070Z,4.60
2018-04-07T08:18:28.729Z,4.60
2018-04-07T08:20:56.386Z,4.57
2018-04-07T08:23:24.077Z,4.93
2018-04-07T08:25:52.524Z,5.30
2018-04-07T08:28:20.260Z,4.80
2018-04-07T08:30:48.723Z,4.83
2018-04-07T08:33:16.332Z,4.93
2018-04-07T08:35:44.034Z,4.90
2018-04-07T08:38:12.452Z,4.83
2018-04-07T08:40:41.650Z,5.03
2018-04-07T08:43:10.080Z,4.87
2018-04-07T08:45:38.139Z,4.77
2018-04-07T08:48:07.350Z,4.60
2018-04-07T08:50:34.956Z,4.60
2018-04-07T08:53:03.349Z,4.93
2018-04-07T08:55:30.973Z,5.07
2018-04-07T08:57:58.608Z,4.57
2018-04-07T09:00:26.290Z,4.80
2018-04-07T09:02:53.939Z,4.90
2018-04-07T09:05:21.623Z,4.77
2018-04-07T09:07:49.332Z,5.20
2018-04-07T09:10:17.740Z,5.13
2018-04-07T09:12:46.134Z,5.27
2018-04-07T09:15:14.274Z,5.03
2018-04-07T09:17:41.964Z,5.00
2018-04-07T09:20:09.672Z,5.30
2018-04-07T09:22:37.308Z,5.13
2018-04-07T09:25:06.540Z,5.47
2018-04-07T09:27:34.211Z,5.13
2018-04-07T09:30:02.976Z,5.37
2018-04-07T09:32:31.445Z,4.93
2018-04-07T09:34:59.534Z,5.27
2018-04-07T09:37:27.554Z,5.60
2018-04-07T09:39:55.187Z,5.57
2018-04-07T09:42:23.598Z,5.27
2018-04-07T09:44:51.292Z,5.70
2018-04-07T09:47:19.717Z,5.97
2018-04-07T09:49:47.319Z,5.50
2018-04-07T09:52:16.343Z,5.17
2018-04-07T09:54:44.746Z,5.17
2018-04-07T09:57:12.356Z,5.53
2018-04-07T09:59:40.020Z,5.73
2018-04-07T10:02:07.801Z,5.97
2018-04-07T10:04:35.513Z,5.90
2018-04-07T10:07:03.171Z,6.13
2018-04-07T10:09:32.186Z,5.47
2018-04-07T10:11:59.874Z,5.33
2018-04-07T10:14:29.353Z,5.67
2018-04-07T10:16:57.805Z,5.60
2018-04-07T10:19:25.506Z,5.33
2018-04-07T10:21:54.627Z,5.67
2018-04-07T10:24:22.664Z,6.67
2018-04-07T10:26:50.401Z,5.13
2018-04-07T10:29:19.567Z,5.47
2018-04-07T10:31:47.968Z,5.73
2018-04-07T10:34:15.704Z,5.30
2018-04-07T10:36:44.147Z,5.97
2018-04-07T10:39:12.337Z,5.77
2018-04-07T10:41:40.755Z,5.97
2018-04-07T10:44:08.435Z,5.90
2018-04-07T10:46:36.058Z,5.53
2018-04-07T10:49:03.763Z,5.33
2018-04-07T10:51:31.377Z,6.40
2018-04-07T10:53:59.431Z,5.67
2018-04-07T10:56:27.116Z,6.17
2018-04-07T10:58:55.500Z,5.93
2018-04-07T11:01:23.932Z,6.00
2018-04-07T11:03:51.616Z,5.70
2018-04-07T11:06:20.567Z,6.10
2018-04-07T11:08:48.240Z,5.63
2018-04-07T11:11:15.920Z,6.00
2018-04-07T11:13:44.390Z,7.13
2018-04-07T11:16:12.004Z,7.03
2018-04-07T11:18:40.396Z,6.10
2018-04-07T11:21:08.819Z,6.03
2018-04-07T11:23:36.827Z,5.97
2018-04-07T11:26:05.288Z,6.10
2018-04-07T11:28:34.492Z,6.20
2018-04-07T11:31:02.110Z,5.70
2018-04-07T11:33:29.764Z,6.30
2018-04-07T11:35:57.494Z,6.03
2018-04-07T11:38:25.914Z,6.00
2018-04-07T11:40:54.370Z,5.90
2018-04-07T11:43:21.992Z,6.03
2018-04-07T11:45:50.065Z,6.97
2018-04-07T11:48:18.058Z,6.43
2018-04-07T11:50:46.468Z,6.13
2018-04-07T11:53:14.128Z,6.33
2018-04-07T11:55:42.561Z,6.40
2018-04-07T11:58:10.218Z,6.20
2018-04-07T12:00:37.883Z,6.57
2018-04-07T12:03:06.380Z,5.53
2018-04-07T12:05:34.791Z,5.63
2018-04-07T12:08:02.416Z,5.93
2018-04-07T12:10:31.219Z,6.83
2018-04-07T12:12:58.847Z,6.63
2018-04-07T12:15:27.740Z,6.43
2018-04-07T12:17:55.840Z,6.13
2018-04-07T12:20:23.483Z,6.03
2018-04-07T12:22:51.121Z,5.93
2018-04-07T12:25:18.787Z,5.77
2018-04-07T12:27:47.991Z,5.67
2018-04-07T12:30:15.621Z,6.57
2018-04-07T12:32:44.061Z,6.67
2018-04-07T12:35:12.464Z,6.47
2018-04-07T12:37:40.111Z,6.83
2018-04-07T12:40:08.886Z,7.03
2018-04-07T12:42:37.320Z,7.37
2018-04-07T12:45:06.163Z,7.03
2018-04-07T12:47:35.317Z,7.83
2018-04-07T12:50:02.965Z,7.57
2018-04-07T12:52:30.598Z,9.83
2018-04-07T12:54:58.734Z,6.60
2018-04-07T12:57:26.371Z,7.03
2018-04-07T12:59:54.041Z,6.73
2018-04-07T13:02:21.712Z,6.03
2018-04-07T13:04:49.323Z,6.10
2018-04-07T13:07:16.999Z,7.03
2018-04-07T13:09:45.367Z,7.23
2018-04-07T13:12:13.036Z,6.10
2018-04-07T13:14:40.640Z,6.23
2018-04-07T13:17:08.328Z,6.83
2018-04-07T13:19:36.787Z,5.90
2018-04-07T13:22:04.450Z,6.93
2018-04-07T13:24:32.129Z,6.60
2018-04-07T13:27:00.511Z,5.80
2018-04-07T13:29:28.976Z,6.37
2018-04-07T13:31:57.351Z,6.13
2018-04-07T13:34:25.760Z,6.57
2018-04-07T13:36:53.761Z,5.83
2018-04-07T13:39:21.395Z,6.03
2018-04-07T13:41:49.059Z,6.27
2018-04-07T13:44:16.795Z,6.10
2018-04-07T13:46:45.167Z,6.73
2018-04-07T13:49:12.826Z,5.97
2018-04-07T13:51:40.493Z,6.63
2018-04-07T13:54:08.900Z,6.13
2018-04-07T13:56:36.549Z,5.83
2018-04-07T13:59:04.945Z,25.90
2018-04-07T14:01:32.602Z,15.03
2018-04-07T14:04:00.260Z,32.63
2018-04-07T14:06:27.918Z,20.93
2018-04-07T14:08:55.546Z,61.63
2018-04-07T14:11:23.248Z,25.83
2018-04-07T14:13:50.899Z,25.13
2018-04-07T14:16:18.940Z,21.93
2018-04-07T14:18:47.371Z,24.90
2018-04-07T14:21:14.996Z,9.33
2018-04-07T14:23:42.639Z,7.73
2018-04-07T14:26:10.303Z,6.43
2018-04-07T14:28:37.912Z,6.37
2018-04-07T14:31:05.580Z,5.73
2018-04-07T14:33:33.218Z,5.60
2018-04-07T14:36:01.620Z,4.73
2018-04-07T14:38:29.246Z,5.23
2018-04-07T14:40:57.609Z,5.20
2018-04-07T14:43:25.242Z,5.87
2018-04-07T14:45:53.252Z,5.93
2018-04-07T14:48:20.967Z,5.07
2018-04-07T14:50:48.605Z,5.47
2018-04-07T14:53:16.251Z,28.57
2018-04-07T14:55:44.707Z,8.57
2018-04-07T14:58:13.221Z,5.97
2018-04-07T15:00:40.931Z,6.23
2018-04-07T15:03:08.566Z,5.60
2018-04-07T15:05:36.171Z,5.50
2018-04-07T15:08:03.870Z,6.17
2018-04-07T15:10:32.633Z,6.77
2018-04-07T15:13:00.321Z,6.53
2018-04-07T15:15:28.334Z,5.90
2018-04-07T15:17:56.344Z,6.10
2018-04-07T15:20:24.335Z,6.50
2018-04-07T15:22:52.019Z,5.53
2018-04-07T15:25:19.682Z,9.90
2018-04-07T15:27:47.740Z,6.50
2018-04-07T15:30:16.110Z,5.80
2018-04-07T15:32:43.716Z,6.37
2018-04-07T15:35:11.379Z,21.37
2018-04-07T15:37:39.047Z,9.80
2018-04-07T15:40:06.678Z,6.43
2018-04-07T15:42:34.379Z,7.30
2018-04-07T15:45:02.744Z,8.10
2018-04-07T15:47:30.412Z,7.05
2018-04-07T15:49:58.098Z,5.95
2018-04-07T15:52:26.534Z,6.72
2018-04-07T15:54:54.130Z,5.80
2018-04-07T15:57:21.762Z,5.40
2018-04-07T15:59:49.403Z,16.30
2018-04-07T16:02:17.916Z,18.73
2018-04-07T16:04:45.592Z,7.32
2018-04-07T16:07:14.036Z,7.70
2018-04-07T16:09:41.996Z,7.32
2018-04-07T16:12:09.651Z,8.40
2018-04-07T16:14:37.307Z,8.35
2018-04-07T16:17:05.745Z,11.52
2018-04-07T16:19:33.414Z,16.27
2018-04-07T16:22:01.862Z,17.85
2018-04-07T16:24:29.535Z,8.18
2018-04-07T16:26:57.172Z,8.90
2018-04-07T16:29:24.870Z,12.30
2018-04-07T16:31:52.493Z,5.75
2018-04-07T16:34:20.927Z,5.47
2018-04-07T16:36:49.375Z,5.25
2018-04-07T16:39:16.987Z,5.40
2018-04-07T16:41:45.433Z,5.90
2018-04-07T16:44:13.048Z,5.80
2018-04-07T16:46:41.141Z,5.77
2018-04-07T16:49:09.214Z,8.23
2018-04-07T16:51:38.040Z,8.10
2018-04-07T16:54:07.472Z,8.40
2018-04-07T16:56:35.927Z,6.83
2018-04-07T16:59:03.683Z,5.27
2018-04-07T17:01:32.447Z,5.27
2018-04-07T17:04:00.870Z,5.93
2018-04-07T17:06:29.111Z,5.60
2018-04-07T17:08:56.764Z,5.17
2018-04-07T17:11:24.445Z,5.83
2018-04-07T17:13:52.924Z,7.13
2018-04-07T17:16:20.922Z,11.93
2018-04-07T17:18:49.720Z,8.07
2018-04-07T17:21:17.785Z,16.10
2018-04-07T17:23:46.950Z,8.27
2018-04-07T17:26:14.610Z,5.37
2018-04-07T17:28:42.302Z,4.67
2018-04-07T17:31:10.767Z,5.17
2018-04-07T17:33:38.407Z,6.10
2018-04-07T17:36:06.798Z,6.17
2018-04-07T17:38:34.465Z,5.50
2018-04-07T17:41:02.078Z,5.80
2018-04-07T17:43:29.775Z,83.10
2018-04-07T17:45:57.485Z,57.40
2018-04-07T17:48:26.254Z,34.80
2018-04-07T17:50:54.700Z,32.00
2018-04-07T17:53:24.148Z,19.70
2018-04-07T17:55:52.640Z,24.03
2018-04-07T17:58:20.279Z,13.40
2018-04-07T18:00:48.720Z,8.90
2018-04-07T18:03:16.406Z,7.30
2018-04-07T18:05:44.857Z,6.70
2018-04-07T18:08:12.930Z,6.57
2018-04-07T18:10:40.549Z,6.00
2018-04-07T18:13:08.294Z,7.10
2018-04-07T18:15:36.340Z,6.20
2018-04-07T18:18:03.990Z,6.20
2018-04-07T18:20:32.082Z,6.17
2018-04-07T18:22:59.797Z,6.40
2018-04-07T18:25:27.443Z,6.87
2018-04-07T18:27:56.466Z,7.00
2018-04-07T18:30:24.164Z,7.50
2018-04-07T18:32:53.131Z,7.33
2018-04-07T18:35:20.876Z,6.97
2018-04-07T18:37:48.929Z,7.57
2018-04-07T18:40:16.597Z,7.70
2018-04-07T18:42:44.249Z,7.30
2018-04-07T18:45:13.423Z,7.10
2018-04-07T18:47:41.112Z,8.03
2018-04-07T18:50:09.212Z,7.00
2018-04-07T18:52:38.249Z,6.67
2018-04-07T18:55:06.287Z,7.20
2018-04-07T18:57:35.082Z,7.87
2018-04-07T19:00:02.717Z,7.87
2018-04-07T19:02:30.368Z,9.30
2018-04-07T19:04:58.047Z,8.20
2018-04-07T19:07:25.743Z,8.00
2018-04-07T19:09:53.534Z,7.80
2018-04-07T19:12:21.945Z,7.87
2018-04-07T19:14:49.636Z,7.47
2018-04-07T19:17:18.030Z,8.00
2018-04-07T19:19:45.698Z,6.80
2018-04-07T19:22:13.376Z,7.33
2018-04-07T19:24:42.255Z,7.70
2018-04-07T19:27:09.905Z,8.23
2018-04-07T19:29:38.740Z,7.33
2018-04-07T19:32:06.760Z,6.80
2018-04-07T19:34:35.820Z,7.40
2018-04-07T19:37:03.860Z,7.30
2018-04-07T19:39:32.238Z,8.27
2018-04-07T19:42:01.299Z,8.33
2018-04-07T19:44:28.931Z,6.50
2018-04-07T19:46:57.364Z,7.67
2018-04-07T19:49:25.800Z,8.23
2018-04-07T19:51:53.546Z,7.40
2018-04-07T19:54:21.189Z,7.83
2018-04-07T19:56:48.856Z,7.27
2018-04-07T19:59:16.509Z,8.13
2018-04-07T20:01:44.914Z,7.57
2018-04-07T20:04:13.317Z,7.90
2018-04-07T20:06:41.012Z,8.27
2018-04-07T20:09:09.426Z,7.67
2018-04-07T20:11:38.188Z,8.20
2018-04-07T20:14:06.600Z,7.40
2018-04-07T20:16:34.271Z,7.77
2018-04-07T20:19:03.075Z,7.43
2018-04-07T20:21:30.711Z,7.93
2018-04-07T20:23:58.836Z,7.83
2018-04-07T20:26:26.446Z,7.80
2018-04-07T20:28:54.057Z,9.17
2018-04-07T20:31:22.124Z,13.83
2018-04-07T20:33:51.244Z,10.47
2018-04-07T20:36:19.667Z,10.57
2018-04-07T20:38:47.323Z,9.87
2018-04-07T20:41:15.796Z,9.50
2018-04-07T20:43:43.416Z,7.30
2018-04-07T20:46:11.056Z,8.07
2018-04-07T20:48:40.425Z,6.80
2018-04-07T20:51:08.434Z,8.20
2018-04-07T20:53:36.448Z,6.87
2018-04-07T20:56:04.523Z,6.57
2018-04-07T20:58:32.555Z,8.67
2018-04-07T21:01:00.959Z,8.27
2018-04-07T21:03:29.343Z,7.57
2018-04-07T21:05:57.830Z,8.50
2018-04-07T21:08:26.902Z,10.37
2018-04-07T21:10:55.464Z,8.80
2018-04-07T21:13:23.957Z,8.27
2018-04-07T21:15:52.375Z,9.73
2018-04-07T21:18:19.998Z,9.40
2018-04-07T21:20:47.665Z,9.77
2018-04-07T21:23:16.777Z,8.23
2018-04-07T21:25:44.452Z,8.30
2018-04-07T21:28:12.583Z,8.93
2018-04-07T21:30:40.616Z,8.23
2018-04-07T21:33:08.990Z,9.07
2018-04-07T21:35:37.054Z,9.03
2018-04-07T21:38:04.730Z,8.03
2018-04-07T21:40:33.923Z,9.53
2018-04-07T21:43:02.878Z,9.43
2018-04-07T21:45:31.263Z,8.67
2018-04-07T21:47:59.378Z,8.60
2018-04-07T21:50:27.869Z,8.67
2018-04-07T21:52:55.686Z,9.10
2018-04-07T21:55:24.120Z,8.50
2018-04-07T21:57:52.175Z,9.07
2018-04-07T22:00:19.805Z,8.70
2018-04-07T22:02:47.444Z,8.57
2018-04-07T22:05:15.070Z,9.57
2018-04-07T22:07:43.077Z,9.53
2018-04-07T22:10:12.258Z,8.97
2018-04-07T22:12:40.382Z,9.67
2018-04-07T22:15:08.421Z,9.30
2018-04-07T22:17:37.968Z,9.03
2018-04-07T22:20:06.068Z,8.73
2018-04-07T22:22:34.271Z,9.70
2018-04-07T22:25:02.344Z,9.03
2018-04-07T22:27:30.072Z,8.70
2018-04-07T22:29:57.744Z,9.97
2018-04-07T22:32:25.368Z,10.43
2018-04-07T22:34:53.092Z,8.80
2018-04-07T22:37:21.548Z,9.33
2018-04-07T22:39:49.237Z,8.47
2018-04-07T22:42:18.087Z,8.77
2018-04-07T22:44:46.104Z,9.00
2018-04-07T22:47:24.554Z,9.80
2018-04-07T22:49:52.189Z,10.23
2018-04-07T22:52:20.581Z,9.67
2018-04-07T22:54:49.055Z,9.00
2018-04-07T22:57:17.124Z,9.47
2018-04-07T22:59:46.105Z,9.63
2018-04-07T23:02:14.112Z,9.63
2018-04-07T23:04:42.582Z,9.50
2018-04-07T23:07:11.193Z,9.83
2018-04-07T23:09:38.798Z,10.23
2018-04-07T23:12:07.244Z,9.63
2018-04-07T23:14:34.863Z,10.50
2018-04-07T23:17:02.527Z,9.53
2018-04-07T23:19:30.205Z,9.60
2018-04-07T23:21:58.270Z,9.77
2018-04-07T23:24:25.913Z,9.53
2018-04-07T23:26:53.918Z,10.83
2018-04-07T23:29:21.590Z,10.47
2018-04-07T23:31:49.246Z,8.77
2018-04-07T23:34:16.870Z,10.07
2018-04-07T23:36:45.748Z,10.27
2018-04-07T23:39:14.790Z,10.53
2018-04-07T23:41:42.423Z,10.53
2018-04-07T23:44:10.101Z,10.53
2018-04-07T23:46:38.136Z,10.73
2018-04-07T23:49:06.179Z,11.17
2018-04-07T23:51:35.199Z,9.97
2018-04-07T23:54:03.612Z,9.77
2018-04-07T23:56:32.438Z,10.30
2018-04-07T23:59:00.477Z,9.40
